Time;durP1;ratioP1;P1;durP2;ratioP2;P2;SDS_P1;SDS_P2;PMS_P1;PMS_P2;Temp;Humidity;BMP_temperature;BMP_pressure;BME280_temperature;BME280_humidity;BME280_pressure;Samples;Min_cycle;Max_cycle;Signal;HPM_P1;HPM_P2
2022/09/09 00:00:06;;;;;;;12.68;10.48;;;17.10;99.90;;;;;;5014580;28;20048;-83
2022/09/09 00:06:28;;;;;;;17.20;10.90;;;16.20;99.90;;;;;;4976323;28;20046;-86
2022/09/09 00:09:00;;;;;;;15.10;10.55;;;17.00;99.90;;;;;;5026139;28;20037;-83
2022/09/09 00:11:43;;;;;;;12.27;10.23;;;16.40;99.90;;;;;;5034553;28;20073;-83
2022/09/09 00:14:37;;;;;;;17.45;11.07;;;16.80;99.90;;;;;;5018112;28;20032;-84
2022/09/09 00:17:14;;;;;;;12.20;10.35;;;17.00;99.90;;;;;;5017891;28;20036;-84
2022/09/09 00:19:54;;;;;;;15.63;10.55;;;16.30;99.90;;;;;;5015842;28;20033;-85
2022/09/09 00:22:23;;;;;;;14.95;10.38;;;16.80;99.90;;;;;;5012065;28;20040;-83
2022/09/09 00:24:53;;;;;;;13.10;10.15;;;16.30;99.90;;;;;;5000129;28;20037;-85
2022/09/09 00:27:29;;;;;;;16.85;11.73;;;16.50;99.90;;;;;;5014757;28;20379;-83
2022/09/09 00:30:16;;;;;;;15.68;10.82;;;16.30;99.90;;;;;;5027390;28;20040;-80
2022/09/09 00:32:45;;;;;;;13.70;10.90;;;16.40;99.90;;;;;;5010659;28;20077;-83
2022/09/09 00:35:29;;;;;;;15.07;11.73;;;16.20;99.90;;;;;;4997676;28;20402;-86
2022/09/09 00:38:03;;;;;;;15.40;10.43;;;16.40;99.90;;;;;;4994770;28;20071;-87
2022/09/09 00:40:48;;;;;;;13.45;10.00;;;16.30;99.90;;;;;;5025849;28;20099;-87
2022/09/09 00:43:35;;;;;;;13.88;10.73;;;16.40;99.90;;;;;;4998103;28;20050;-81
2022/09/09 00:46:09;;;;;;;17.50;11.88;;;16.80;99.90;;;;;;5010538;28;20033;-79
2022/09/09 00:49:00;;;;;;;14.10;9.95;;;16.80;99.90;;;;;;4989992;28;20096;-86
2022/09/09 00:51:46;;;;;;;15.25;10.27;;;16.30;99.90;;;;;;4997936;28;20121;-82
2022/09/09 00:54:47;;;;;;;14.25;9.60;;;16.80;99.90;;;;;;4998199;28;20381;-84
2022/09/09 00:57:34;;;;;;;16.17;9.75;;;16.10;99.90;;;;;;4997928;28;20034;-86
2022/09/09 01:00:20;;;;;;;17.05;11.98;;;16.80;99.90;;;;;;4997371;28;20052;-83
2022/09/09 01:03:13;;;;;;;14.18;10.63;;;16.00;99.90;;;;;;4984200;28;20067;-87
2022/09/09 01:06:03;;;;;;;13.35;10.20;;;16.70;99.90;;;;;;4997952;28;20486;-86
2022/09/09 01:08:47;;;;;;;11.80;9.82;;;16.40;99.90;;;;;;4984112;28;20104;-85
2022/09/09 01:11:25;;;;;;;12.30;9.50;;;16.50;99.90;;;;;;5005765;28;20126;-85
2022/09/09 01:14:18;;;;;;;12.55;9.60;;;16.10;99.90;;;;;;5001303;28;20076;-86
2022/09/09 01:16:46;;;;;;;13.38;9.73;;;16.30;99.90;;;;;;5000822;28;20052;-83
2022/09/09 01:19:39;;;;;;;16.77;11.25;;;16.00;99.90;;;;;;5001625;28;20037;-83
2022/09/09 01:22:18;;;;;;;13.77;10.35;;;16.40;99.90;;;;;;5009446;28;20045;-83
2022/09/09 01:25:25;;;;;;;12.32;9.93;;;16.20;99.90;;;;;;4989915;28;20037;-81
2022/09/09 01:27:56;;;;;;;12.27;10.32;;;16.00;99.90;;;;;;4979219;28;20050;-83
2022/09/09 01:30:22;;;;;;;14.90;10.77;;;16.00;99.90;;;;;;5017226;28;20056;-86
2022/09/09 01:32:53;;;;;;;11.70;9.65;;;15.90;99.90;;;;;;4980713;28;20049;-86
2022/09/09 01:35:45;;;;;;;15.27;10.40;;;17.10;99.90;;;;;;4998053;28;20382;-82
2022/09/09 01:38:11;;;;;;;16.63;10.40;;;16.50;99.90;;;;;;4982498;28;20057;-86
2022/09/09 01:40:37;;;;;;;13.40;11.07;;;15.80;99.90;;;;;;4995455;28;20037;-82
2022/09/09 01:43:03;;;;;;;11.15;9.88;;;15.80;99.90;;;;;;4992036;28;20052;-82
2022/09/09 01:45:30;;;;;;;13.32;10.40;;;16.40;99.90;;;;;;4984522;28;20042;-84
2022/09/09 01:47:56;;;;;;;13.23;10.00;;;16.40;99.90;;;;;;4967530;28;20083;-83
2022/09/09 01:50:22;;;;;;;17.00;10.45;;;16.00;99.90;;;;;;4984726;28;20042;-84
2022/09/09 01:52:52;;;;;;;12.45;10.88;;;16.10;99.90;;;;;;4996584;28;20037;-85
2022/09/09 01:55:28;;;;;;;12.68;10.25;;;16.40;99.90;;;;;;5014917;28;20077;-84
2022/09/09 01:58:36;;;;;;;14.68;11.05;;;16.10;99.90;;;;;;5013801;28;20041;-82
2022/09/09 02:01:17;;;;;;;12.77;9.73;;;16.30;99.90;;;;;;5016279;28;20107;-82
2022/09/09 02:03:51;;;;;;;12.10;9.07;;;15.80;99.90;;;;;;5000875;28;20073;-81
2022/09/09 02:06:26;;;;;;;11.10;9.35;;;15.80;99.90;;;;;;5016696;28;20045;-80
2022/09/09 02:09:01;;;;;;;16.55;11.30;;;15.90;99.90;;;;;;4999990;28;20033;-81
2022/09/09 02:11:30;;;;;;;14.90;10.65;;;16.30;99.90;;;;;;5000169;28;20355;-85
2022/09/09 02:14:14;;;;;;;14.95;10.68;;;16.30;99.90;;;;;;5010277;28;20088;-82
2022/09/09 02:17:01;;;;;;;13.40;11.13;;;15.90;99.90;;;;;;4980954;28;20095;-81
2022/09/09 02:19:31;;;;;;;18.08;11.25;;;15.80;99.90;;;;;;4984493;28;20689;-82
2022/09/09 02:21:59;;;;;;;14.18;10.95;;;16.30;99.90;;;;;;4998575;28;20048;-81
2022/09/09 02:24:27;;;;;;;15.25;10.63;;;15.90;99.90;;;;;;5005353;28;20074;-84
2022/09/09 02:26:55;;;;;;;15.27;11.38;;;15.80;99.90;;;;;;4980642;28;20038;-85
2022/09/09 02:29:30;;;;;;;15.52;11.13;;;16.00;99.90;;;;;;4996867;28;20034;-85
2022/09/09 02:32:02;;;;;;;14.60;9.70;;;16.00;99.90;;;;;;4999549;28;20064;-82
2022/09/09 02:34:31;;;;;;;14.55;11.40;;;16.10;99.90;;;;;;5024948;28;20037;-81
2022/09/09 02:36:59;;;;;;;17.48;10.95;;;15.80;99.90;;;;;;5034764;28;20040;-84
2022/09/09 02:39:25;;;;;;;14.18;9.88;;;16.00;99.90;;;;;;5019756;28;20045;-83
2022/09/09 02:41:51;;;;;;;13.85;11.00;;;16.20;99.90;;;;;;4986882;28;20047;-84
2022/09/09 02:44:18;;;;;;;16.13;11.25;;;15.80;99.90;;;;;;4996092;28;20041;-83
2022/09/09 02:46:47;;;;;;;13.75;10.65;;;15.90;99.90;;;;;;5000006;28;20425;-83
2022/09/09 02:49:50;;;;;;;12.73;10.82;;;16.30;99.90;;;;;;5016081;28;20051;-83
2022/09/09 02:52:39;;;;;;;13.98;10.15;;;15.90;99.90;;;;;;5019784;28;20033;-82
2022/09/09 02:55:17;;;;;;;18.20;10.85;;;16.00;99.90;;;;;;5012950;28;20396;-81
2022/09/09 02:57:47;;;;;;;15.82;10.23;;;16.30;99.90;;;;;;5019451;28;20409;-83
2022/09/09 03:00:13;;;;;;;14.02;10.65;;;16.20;99.90;;;;;;5019123;28;20052;-83
2022/09/09 03:02:39;;;;;;;15.85;11.02;;;16.30;99.90;;;;;;5002010;28;20087;-82
2022/09/09 03:05:06;;;;;;;13.70;10.57;;;16.20;99.90;;;;;;4984560;28;20084;-80
2022/09/09 03:07:31;;;;;;;14.85;10.55;;;15.90;99.90;;;;;;5001631;28;20044;-83
2022/09/09 03:09:58;;;;;;;16.20;10.77;;;16.00;99.90;;;;;;4985818;28;20033;-84
2022/09/09 03:12:23;;;;;;;16.17;11.13;;;16.00;99.90;;;;;;4998427;28;20065;-83
2022/09/09 03:14:49;;;;;;;15.35;10.55;;;15.90;99.90;;;;;;5015520;28;20073;-82
2022/09/09 03:17:15;;;;;;;15.38;11.52;;;16.20;99.90;;;;;;5031259;28;20049;-84
2022/09/09 03:19:52;;;;;;;15.45;11.48;;;16.30;99.90;;;;;;5018929;28;20119;-84
2022/09/09 03:22:18;;;;;;;18.65;11.50;;;16.30;99.90;;;;;;5002485;28;20041;-83
2022/09/09 03:24:43;;;;;;;14.27;10.55;;;16.40;99.90;;;;;;4985680;28;20044;-85
2022/09/09 03:27:09;;;;;;;16.85;10.90;;;16.50;99.90;;;;;;5017583;28;20427;-85
2022/09/09 03:29:35;;;;;;;13.60;9.98;;;16.10;99.90;;;;;;5002691;28;20033;-85
2022/09/09 03:32:01;;;;;;;15.57;9.13;;;16.50;99.90;;;;;;4978580;28;20119;-86
2022/09/09 03:34:27;;;;;;;14.55;9.23;;;16.00;99.90;;;;;;4998496;28;20391;-86
2022/09/09 03:36:53;;;;;;;11.85;8.80;;;16.30;99.90;;;;;;4995247;28;20077;-86
2022/09/09 03:39:19;;;;;;;10.50;8.02;;;16.40;99.90;;;;;;4995604;28;20038;-85
2022/09/09 03:41:47;;;;;;;11.20;8.30;;;16.40;99.90;;;;;;5008514;28;20404;-86
2022/09/09 03:44:13;;;;;;;12.38;7.68;;;16.40;99.90;;;;;;4998962;28;20065;-84
2022/09/09 03:46:39;;;;;;;12.75;7.55;;;16.20;99.90;;;;;;4998026;28;20078;-83
2022/09/09 03:49:04;;;;;;;8.55;7.18;;;16.20;99.90;;;;;;4998000;28;20034;-85
2022/09/09 03:51:30;;;;;;;16.38;7.55;;;16.60;99.90;;;;;;4997654;28;20113;-84
2022/09/09 03:53:57;;;;;;;9.48;6.78;;;16.40;99.90;;;;;;4998139;28;20077;-84
2022/09/09 03:56:31;;;;;;;10.00;6.72;;;16.60;99.90;;;;;;4998738;28;20374;-85
2022/09/09 03:58:57;;;;;;;8.80;6.45;;;16.40;99.90;;;;;;4981765;28;20038;-85
2022/09/09 04:01:23;;;;;;;8.75;6.05;;;16.50;99.90;;;;;;4995223;28;20077;-87
2022/09/09 04:03:55;;;;;;;9.90;5.78;;;16.80;99.90;;;;;;5014717;28;20045;-82
2022/09/09 04:06:43;;;;;;;10.52;5.40;;;16.90;99.90;;;;;;5003472;28;20081;-84
2022/09/09 04:09:09;;;;;;;9.75;4.70;;;16.80;99.90;;;;;;4982071;28;20081;-83
2022/09/09 04:11:43;;;;;;;8.05;4.47;;;16.90;99.90;;;;;;5013462;28;20474;-83
2022/09/09 04:14:09;;;;;;;;;;;16.80;99.90;;;;;;4994594;28;20038;-83
2022/09/09 04:16:36;;;;;;;7.13;3.15;;;16.90;99.90;;;;;;5010872;28;19944;-82
2022/09/09 04:19:26;;;;;;;4.63;2.60;;;16.70;99.90;;;;;;5011161;28;20042;-83
2022/09/09 04:22:22;;;;;;;8.05;3.00;;;16.90;99.90;;;;;;5001541;28;20456;-82
2022/09/09 04:28:09;;;;;;;10.43;3.10;;;16.90;99.90;;;;;;5031849;28;20045;-83
2022/09/09 04:30:35;;;;;;;7.32;3.08;;;17.00;99.90;;;;;;4997940;28;20034;-84
2022/09/09 04:33:01;;;;;;;7.00;3.15;;;16.80;99.90;;;;;;4999579;28;20128;-84
2022/09/09 04:35:28;;;;;;;9.98;3.47;;;16.70;99.90;;;;;;5017761;28;20037;-82
2022/09/09 04:37:53;;;;;;;10.20;4.10;;;17.00;99.90;;;;;;5017891;28;20040;-86
2022/09/09 04:40:19;;;;;;;8.90;3.85;;;17.20;99.90;;;;;;5001298;28;20155;-85
2022/09/09 04:42:47;;;;;;;7.45;3.72;;;16.80;99.90;;;;;;5002902;28;20037;-83
2022/09/09 04:45:13;;;;;;;6.28;3.85;;;16.70;99.90;;;;;;5019625;28;20037;-81
2022/09/09 04:47:39;;;;;;;7.18;4.43;;;17.20;99.90;;;;;;5021844;28;20106;-83
2022/09/09 04:50:05;;;;;;;10.25;4.68;;;16.60;99.90;;;;;;5000093;28;20648;-82
2022/09/09 04:52:33;;;;;;;6.05;4.10;;;17.00;99.90;;;;;;5002322;28;20041;-81
2022/09/09 04:54:59;;;;;;;8.05;4.97;;;16.90;99.90;;;;;;5036240;28;20410;-82
2022/09/09 04:57:24;;;;;;;7.43;4.32;;;17.00;99.90;;;;;;5005407;28;20145;-82
2022/09/09 04:59:50;;;;;;;5.32;4.20;;;16.90;99.90;;;;;;5005068;28;20523;-80
2022/09/09 05:02:16;;;;;;;7.50;4.63;;;16.60;99.90;;;;;;5005008;28;20040;-82
2022/09/09 05:04:41;;;;;;;8.10;4.72;;;16.50;99.90;;;;;;5037343;28;20442;-82
2022/09/09 05:07:07;;;;;;;8.82;4.65;;;17.10;99.90;;;;;;5035611;28;20041;-81
2022/09/09 05:09:33;;;;;;;5.00;3.95;;;16.80;99.90;;;;;;4988686;28;20049;-82
2022/09/09 05:11:59;;;;;;;9.10;5.25;;;16.60;99.90;;;;;;5001371;28;20171;-81
2022/09/09 05:14:24;;;;;;;13.15;6.07;;;16.40;99.90;;;;;;4998718;28;20044;-81
2022/09/09 05:16:51;;;;;;;8.30;5.70;;;16.50;99.90;;;;;;5019840;28;20037;-81
2022/09/09 05:19:18;;;;;;;7.65;5.95;;;16.40;99.90;;;;;;5019557;28;20535;-80
2022/09/09 05:21:44;;;;;;;9.50;6.43;;;16.60;99.90;;;;;;5036854;28;20041;-81
2022/09/09 05:24:10;;;;;;;10.80;7.10;;;16.40;99.90;;;;;;5032659;28;20401;-80
2022/09/09 05:26:36;;;;;;;8.57;6.75;;;16.50;99.90;;;;;;5000306;28;20037;-80
2022/09/09 05:29:02;;;;;;;9.43;6.60;;;16.70;99.90;;;;;;5014884;28;20094;-81
2022/09/09 05:31:30;;;;;;;9.13;5.70;;;16.80;99.90;;;;;;5019920;28;20060;-78
2022/09/09 05:33:55;;;;;;;11.10;7.57;;;16.30;99.90;;;;;;5031056;28;20087;-79
2022/09/09 05:36:23;;;;;;;10.32;7.55;;;16.90;99.90;;;;;;4971469;28;20045;-80
2022/09/09 05:38:49;;;;;;;8.07;6.85;;;16.90;99.90;;;;;;5011159;28;20386;-79
2022/09/09 05:41:17;;;;;;;13.32;8.35;;;16.90;99.90;;;;;;5016073;28;20044;-79
2022/09/09 05:43:44;;;;;;;9.00;7.55;;;16.50;99.90;;;;;;5002981;28;20505;-80
2022/09/09 05:46:18;;;;;;;10.70;8.50;;;16.30;99.90;;;;;;4989343;28;20048;-79
2022/09/09 05:48:48;;;;;;;12.38;9.70;;;16.60;99.90;;;;;;5019500;28;20041;-78
2022/09/09 05:51:17;;;;;;;12.48;9.32;;;16.30;99.90;;;;;;5035779;28;20044;-79
2022/09/09 05:53:44;;;;;;;12.07;9.57;;;16.80;99.90;;;;;;5003895;28;20038;-80
2022/09/09 05:56:29;;;;;;;10.65;8.55;;;16.40;99.90;;;;;;4999274;28;20052;-80
2022/09/09 05:58:55;;;;;;;15.40;9.98;;;16.80;99.90;;;;;;4980007;28;20169;-79
2022/09/09 06:01:26;;;;;;;15.18;9.23;;;17.00;99.90;;;;;;4998892;28;20474;-80
2022/09/09 06:03:52;;;;;;;12.70;9.48;;;16.40;99.90;;;;;;4998565;28;20120;-82
2022/09/09 06:06:26;;;;;;;13.50;10.27;;;16.40;99.90;;;;;;4998664;28;20107;-82
2022/09/09 06:08:54;;;;;;;11.25;8.85;;;16.50;99.90;;;;;;4997101;28;20120;-82
2022/09/09 06:11:23;;;;;;;9.90;8.77;;;16.70;99.90;;;;;;4980584;28;20033;-80
2022/09/09 06:13:53;;;;;;;11.93;8.90;;;17.00;99.90;;;;;;5004287;28;20048;-81
2022/09/09 06:16:23;;;;;;;11.98;9.02;;;16.80;99.90;;;;;;4999409;28;20041;-85
2022/09/09 06:18:50;;;;;;;11.00;8.05;;;16.70;99.90;;;;;;5000172;28;20114;-86
2022/09/09 06:21:17;;;;;;;13.13;9.23;;;16.90;99.90;;;;;;4999885;28;20866;-82
2022/09/09 06:23:47;;;;;;;12.32;8.95;;;16.90;99.90;;;;;;4999289;28;20492;-84
2022/09/09 06:26:22;;;;;;;10.25;8.18;;;16.40;99.90;;;;;;4999089;28;20444;-84
2022/09/09 06:28:50;;;;;;;11.55;8.85;;;16.40;99.90;;;;;;5000511;28;20042;-82
2022/09/09 06:31:21;;;;;;;12.07;8.65;;;16.70;99.90;;;;;;5004681;28;20053;-75
2022/09/09 06:33:47;;;;;;;12.25;9.25;;;17.00;99.90;;;;;;5017809;28;20057;-84
2022/09/09 06:36:18;;;;;;;10.18;8.15;;;16.90;99.90;;;;;;4999124;28;20042;-85
2022/09/09 06:38:45;;;;;;;10.23;8.18;;;16.90;99.90;;;;;;5000221;28;20160;-83
2022/09/09 06:41:28;;;;;;;8.02;6.40;;;16.30;99.90;;;;;;5003530;28;20041;-84
2022/09/09 06:43:57;;;;;;;11.07;8.25;;;17.40;99.90;;;;;;5012349;28;20048;-83
2022/09/09 06:46:27;;;;;;;11.75;8.95;;;16.20;99.90;;;;;;5015491;28;20040;-82
2022/09/09 06:48:55;;;;;;;11.13;8.68;;;17.00;99.90;;;;;;5016049;28;20044;-82
2022/09/09 06:51:23;;;;;;;11.15;7.97;;;16.40;99.90;;;;;;4999294;28;20051;-83
2022/09/09 06:54:06;;;;;;;11.98;8.65;;;16.40;99.90;;;;;;5024118;28;20037;-83
2022/09/09 06:56:34;;;;;;;11.25;8.95;;;15.80;99.90;;;;;;4998896;28;20120;-83
2022/09/09 06:59:17;;;;;;;10.32;7.38;;;16.10;99.90;;;;;;5018067;28;20056;-83
2022/09/09 07:01:43;;;;;;;11.45;9.15;;;16.40;99.90;;;;;;5002762;28;20044;-82
2022/09/09 07:04:10;;;;;;;9.50;8.20;;;16.80;99.90;;;;;;4985280;28;20430;-82
2022/09/09 07:06:43;;;;;;;14.32;9.27;;;17.00;99.90;;;;;;5018089;28;20417;-83
2022/09/09 07:09:10;;;;;;;11.27;8.55;;;16.90;99.90;;;;;;5019132;28;20041;-84
2022/09/09 07:11:47;;;;;;;10.13;8.02;;;16.60;99.90;;;;;;5018320;28;20071;-84
2022/09/09 07:14:14;;;;;;;8.93;8.02;;;16.90;99.90;;;;;;5019180;28;20040;-83
2022/09/09 07:16:41;;;;;;;10.82;8.18;;;17.20;99.90;;;;;;5022329;28;20072;-84
2022/09/09 07:19:07;;;;;;;11.05;7.65;;;16.80;99.90;;;;;;5034966;28;20041;-83
2022/09/09 07:21:36;;;;;;;10.35;7.68;;;17.40;99.90;;;;;;5003979;28;20115;-83
2022/09/09 07:24:07;;;;;;;10.32;9.23;;;17.50;99.90;;;;;;5035710;28;20370;-86
2022/09/09 07:26:36;;;;;;;10.68;7.47;;;17.40;99.90;;;;;;5018571;28;20041;-86
2022/09/09 07:29:02;;;;;;;10.65;7.78;;;16.70;99.90;;;;;;5017964;28;20040;-84
2022/09/09 07:31:37;;;;;;;11.75;9.23;;;17.40;99.90;;;;;;5017849;28;20512;-84
2022/09/09 07:34:05;;;;;;;11.40;8.18;;;17.20;99.90;;;;;;5017430;28;20052;-83
2022/09/09 07:36:39;;;;;;;9.77;7.63;;;16.80;99.90;;;;;;5018056;28;20093;-84
2022/09/09 07:39:09;;;;;;;11.10;7.78;;;17.10;99.90;;;;;;5033307;28;20075;-82
2022/09/09 07:42:09;;;;;;;10.30;7.70;;;17.30;99.90;;;;;;5036950;28;20470;-83
2022/09/09 07:48:53;;;;;;;8.98;7.30;;;17.70;99.90;;;;;;4968753;28;20167;-74
2022/09/09 07:51:24;;;;;;;8.07;7.10;;;17.10;99.90;;;;;;4939258;28;20051;-82
2022/09/09 07:53:54;;;;;;;8.63;7.60;;;17.20;99.90;;;;;;4925656;28;20053;-86
2022/09/09 07:56:23;;;;;;;9.18;7.25;;;18.40;99.90;;;;;;4938626;28;20042;-88
2022/09/09 07:58:51;;;;;;;9.95;6.97;;;17.70;99.90;;;;;;4987704;28;20050;-83
2022/09/09 08:01:37;;;;;;;9.20;6.43;;;17.50;99.90;;;;;;5017235;28;20063;-81
2022/09/09 08:04:08;;;;;;;9.18;7.18;;;16.00;99.90;;;;;;5014798;28;20098;-83
2022/09/09 08:06:42;;;;;;;10.02;7.03;;;16.90;99.90;;;;;;5014596;28;20064;-83
2022/09/09 08:09:10;;;;;;;8.07;6.40;;;17.30;99.90;;;;;;5017795;28;20044;-83
2022/09/09 08:11:36;;;;;;;7.25;6.05;;;17.20;99.90;;;;;;5017132;28;20041;-84
2022/09/09 08:14:03;;;;;;;11.65;7.32;;;16.90;99.90;;;;;;4998780;28;20045;-83
2022/09/09 08:16:32;;;;;;;8.57;6.70;;;17.00;99.90;;;;;;5001349;28;20512;-81
2022/09/09 08:18:58;;;;;;;11.70;6.15;;;17.40;99.90;;;;;;5018166;28;20051;-81
2022/09/09 08:21:32;;;;;;;8.50;6.57;;;17.10;99.90;;;;;;5001057;28;20049;-84
2022/09/09 08:24:01;;;;;;;9.07;6.05;;;17.20;99.90;;;;;;5014304;28;20045;-84
2022/09/09 08:26:28;;;;;;;10.70;6.25;;;17.20;99.90;;;;;;5017352;28;20045;-83
2022/09/09 08:28:56;;;;;;;8.77;5.90;;;17.70;99.90;;;;;;5018297;28;20119;-82
2022/09/09 08:31:28;;;;;;;9.55;5.57;;;17.50;99.90;;;;;;5016698;28;20053;-86
2022/09/09 08:33:55;;;;;;;7.38;6.00;;;16.00;99.90;;;;;;5012830;28;20197;-83
2022/09/09 08:36:23;;;;;;;7.78;5.07;;;17.30;99.90;;;;;;5001346;28;20080;-84
2022/09/09 08:42:37;;;;;;;8.52;5.97;;;17.30;99.90;;;;;;5026770;28;20041;-83
2022/09/09 08:45:21;;;;;;;10.52;5.75;;;17.70;99.90;;;;;;5011293;28;20045;-82
2022/09/09 08:47:54;;;;;;;6.90;5.10;;;17.70;99.90;;;;;;5017973;28;20037;-82
2022/09/09 08:50:28;;;;;;;8.20;5.10;;;17.50;99.90;;;;;;5031936;28;20037;-82
2022/09/09 08:53:07;;;;;;;8.95;5.32;;;17.60;99.90;;;;;;5009749;28;20061;-83
2022/09/09 08:55:36;;;;;;;8.10;5.13;;;18.20;99.90;;;;;;5022839;28;20033;-81
2022/09/09 08:58:18;;;;;;;7.18;4.68;;;17.70;99.90;;;;;;5015500;28;20533;-83
2022/09/09 09:01:00;;;;;;;11.10;5.53;;;17.40;99.90;;;;;;5017185;28;20040;-81
2022/09/09 09:03:29;;;;;;;6.75;5.25;;;17.70;99.90;;;;;;5000258;28;20397;-81
2022/09/09 09:06:17;;;;;;;9.13;5.22;;;17.50;99.90;;;;;;5014196;28;20132;-81
2022/09/09 09:09:02;;;;;;;9.88;5.97;;;17.50;99.90;;;;;;5014121;28;20128;-80
2022/09/09 09:11:34;;;;;;;;;;;17.40;99.90;;;;;;5026597;28;20033;-83
2022/09/09 09:14:07;;;;;;;10.98;5.43;;;17.30;99.90;;;;;;5010084;28;19924;-81
2022/09/09 09:16:36;;;;;;;7.45;4.85;;;17.60;99.90;;;;;;5010095;28;20482;-81
2022/09/09 09:19:02;;;;;;;6.40;5.45;;;17.60;99.90;;;;;;5013748;28;20108;-82
2022/09/09 09:21:41;;;;;;;9.35;5.00;;;17.40;99.90;;;;;;5015591;28;20076;-81
2022/09/09 09:24:17;;;;;;;6.38;5.20;;;17.60;99.90;;;;;;5030689;28;20489;-79
2022/09/09 09:26:44;;;;;;;6.63;4.93;;;17.60;99.90;;;;;;4998288;28;20056;-82
2022/09/09 09:29:18;;;;;;;7.18;4.82;;;17.90;99.90;;;;;;5028313;28;20068;-80
2022/09/09 09:31:55;;;;;;;5.65;4.75;;;17.90;99.90;;;;;;5018148;28;20057;-79
2022/09/09 09:34:21;;;;;;;6.55;4.00;;;18.00;99.90;;;;;;5033238;28;20062;-84
2022/09/09 09:36:54;;;;;;;8.25;5.00;;;17.70;99.90;;;;;;5020422;28;20052;-83
2022/09/09 09:39:31;;;;;;;9.13;4.93;;;17.90;99.90;;;;;;5004989;28;20123;-85
2022/09/09 09:41:57;;;;;;;5.80;4.13;;;17.70;99.90;;;;;;5020891;28;20041;-82
2022/09/09 09:44:29;;;;;;;10.38;5.53;;;17.90;99.90;;;;;;5020078;28;20040;-82
2022/09/09 09:47:12;;;;;;;7.72;5.28;;;18.00;99.90;;;;;;5019719;28;20033;-82
2022/09/09 09:49:38;;;;;;;9.40;5.03;;;18.00;99.90;;;;;;5019864;28;20037;-81
2022/09/09 09:52:15;;;;;;;9.68;4.47;;;18.10;99.90;;;;;;5004179;28;20040;-78
2022/09/09 09:54:42;;;;;;;8.25;4.95;;;18.10;99.90;;;;;;5016014;28;20037;-83
2022/09/09 09:57:14;;;;;;;11.13;4.95;;;18.20;99.90;;;;;;5004519;28;20381;-83
2022/09/09 09:59:40;;;;;;;6.93;4.40;;;18.20;99.90;;;;;;5002500;28;20040;-80
2022/09/09 10:02:37;;;;;;;7.80;4.60;;;18.20;99.90;;;;;;5015827;28;20041;-82
2022/09/09 10:05:15;;;;;;;9.95;3.90;;;18.70;99.90;;;;;;5011718;28;20052;-83
2022/09/09 10:07:43;;;;;;;4.53;4.00;;;18.70;99.90;;;;;;5017441;28;20037;-81
2022/09/09 10:10:20;;;;;;;6.57;3.55;;;18.80;99.90;;;;;;5016398;28;20134;-83
2022/09/09 10:12:50;;;;;;;8.95;4.82;;;18.80;99.90;;;;;;5015537;28;20123;-81
2022/09/09 10:18:50;;;;;;;7.70;3.50;;;18.90;99.90;;;;;;5001147;28;20056;-88
2022/09/09 10:25:31;;;;;;;7.53;2.92;;;18.90;99.90;;;;;;5029841;28;20152;-84
2022/09/09 10:28:26;;;;;;;8.93;3.20;;;18.80;99.90;;;;;;5000476;28;20393;-85
2022/09/09 10:31:17;;;;;;;4.95;2.83;;;19.50;99.90;;;;;;5014439;28;20044;-86
2022/09/09 10:34:35;;;;;;;7.68;3.13;;;19.40;99.90;;;;;;4991488;28;20091;-80
2022/09/09 10:37:06;;;;;;;8.10;2.85;;;19.50;99.90;;;;;;4934136;28;20056;-81
2022/09/09 10:39:37;;;;;;;7.45;3.15;;;19.30;99.90;;;;;;4991862;28;20045;-82
2022/09/09 10:42:14;;;;;;;7.63;2.58;;;19.10;99.90;;;;;;4998457;28;20040;-84
2022/09/09 10:45:01;;;;;;;6.45;2.45;;;19.30;99.90;;;;;;4994544;28;20034;-85
2022/09/09 10:48:10;;;;;;;5.20;2.38;;;19.70;99.90;;;;;;4989601;28;20048;-83
2022/09/09 10:50:42;;;;;;;5.00;2.00;;;20.10;99.90;;;;;;4991308;28;20072;-80
2022/09/09 10:53:47;;;;;;;5.68;2.30;;;19.80;99.90;;;;;;4991291;28;20037;-81
2022/09/09 10:56:16;;;;;;;8.10;2.53;;;19.80;99.90;;;;;;5008440;28;20045;-81
2022/09/09 10:58:54;;;;;;;4.60;2.05;;;19.60;99.90;;;;;;5014797;28;20076;-80
2022/09/09 11:01:51;;;;;;;5.53;2.30;;;19.30;99.90;;;;;;5014511;28;20116;-81
2022/09/09 11:04:52;;;;;;;3.80;2.28;;;19.70;99.90;;;;;;4998214;28;20068;-81
2022/09/09 11:07:40;;;;;;;5.18;1.73;;;19.70;99.90;;;;;;4953447;28;20107;-80
2022/09/09 11:10:34;;;;;;;6.28;2.08;;;19.90;99.90;;;;;;5021348;28;20393;-81
2022/09/09 11:13:05;;;;;;;4.07;1.80;;;19.70;99.90;;;;;;5007013;28;20048;-80
2022/09/09 11:15:39;;;;;;;7.05;1.90;;;19.60;99.90;;;;;;4997589;28;20486;-83
2022/09/09 11:18:06;;;;;;;5.10;1.80;;;19.40;99.90;;;;;;4998278;28;20041;-80
2022/09/09 11:20:32;;;;;;;5.45;2.00;;;19.40;99.90;;;;;;5012726;28;20526;-79
2022/09/09 11:23:02;;;;;;;4.60;1.70;;;19.50;99.90;;;;;;4997865;28;20343;-78
2022/09/09 11:25:42;;;;;;;5.60;1.80;;;19.50;99.90;;;;;;4996714;28;20156;-78
2022/09/09 11:28:35;;;;;;;5.07;1.90;;;19.70;99.90;;;;;;5025793;28;20104;-83
2022/09/09 11:31:27;;;;;;;3.70;1.80;;;19.70;99.90;;;;;;5033969;28;20041;-80
2022/09/09 11:34:08;;;;;;;5.10;1.90;;;20.00;99.90;;;;;;5017809;28;20527;-80
2022/09/09 11:36:53;;;;;;;3.67;1.77;;;20.20;99.90;;;;;;5014073;28;20033;-81
2022/09/09 11:39:37;;;;;;;3.05;1.50;;;20.30;99.90;;;;;;4994139;28;20038;-83
2022/09/09 11:42:15;;;;;;;4.83;1.60;;;20.30;99.90;;;;;;4978693;28;20042;-81
2022/09/09 11:44:41;;;;;;;5.20;1.75;;;20.50;99.90;;;;;;4978366;28;20064;-86
2022/09/09 11:47:29;;;;;;;5.45;1.70;;;20.50;99.90;;;;;;4983044;28;20030;-80
2022/09/09 11:50:13;;;;;;;6.53;2.00;;;20.50;99.90;;;;;;5013818;28;20046;-83
2022/09/09 11:52:45;;;;;;;5.53;1.75;;;20.70;99.90;;;;;;4997232;28;20041;-84
2022/09/09 11:55:36;;;;;;;4.75;1.60;;;20.40;99.90;;;;;;4997537;28;20048;-79
2022/09/09 11:58:16;;;;;;;5.65;1.52;;;20.20;99.90;;;;;;4997067;28;20041;-82
2022/09/09 12:00:46;;;;;;;2.38;1.40;;;20.40;99.90;;;;;;4997469;28;20612;-80
2022/09/09 12:03:52;;;;;;;3.22;1.50;;;20.30;99.90;;;;;;4997905;28;20037;-86
2022/09/09 12:06:52;;;;;;;5.53;1.80;;;20.10;99.90;;;;;;4997872;28;20156;-82
2022/09/09 12:09:32;;;;;;;5.63;1.67;;;20.00;99.90;;;;;;5012382;28;20037;-83
2022/09/09 12:12:29;;;;;;;5.32;1.58;;;20.00;99.90;;;;;;4997451;28;20034;-85
2022/09/09 12:15:06;;;;;;;4.95;1.63;;;19.80;99.90;;;;;;4995900;28;20057;-80
2022/09/09 12:17:44;;;;;;;6.65;2.38;;;19.70;99.90;;;;;;4996891;28;20042;-82
2022/09/09 12:20:20;;;;;;;5.47;1.85;;;19.80;99.90;;;;;;4990102;28;20045;-84
2022/09/09 12:22:56;;;;;;;3.38;1.67;;;19.90;99.90;;;;;;4993943;28;20100;-83
2022/09/09 12:25:48;;;;;;;2.70;1.50;;;20.00;99.90;;;;;;4977785;28;20042;-85
2022/09/09 12:28:22;;;;;;;2.33;1.60;;;20.00;99.90;;;;;;5013145;28;20041;-83
2022/09/09 12:31:17;;;;;;;4.75;1.63;;;20.10;99.90;;;;;;4997326;28;20493;-81
2022/09/09 12:33:45;;;;;;;3.58;1.48;;;20.20;99.90;;;;;;5016812;28;20057;-84
2022/09/09 12:36:20;;;;;;;5.68;1.80;;;20.40;99.90;;;;;;5017093;28;20044;-86
2022/09/09 12:38:46;;;;;;;3.33;1.83;;;20.10;99.90;;;;;;5016965;28;20076;-85
2022/09/09 12:41:24;;;;;;;7.03;1.98;;;20.00;99.90;;;;;;5017151;28;20118;-82
2022/09/09 12:44:03;;;;;;;3.75;1.90;;;20.00;99.90;;;;;;5017419;28;20084;-86
2022/09/09 12:46:45;;;;;;;6.28;1.80;;;20.00;99.90;;;;;;5016944;28;20048;-84
2022/09/09 12:49:35;;;;;;;5.38;1.73;;;19.90;99.90;;;;;;5033736;28;20084;-85
2022/09/09 12:52:30;;;;;;;5.78;2.00;;;20.30;99.90;;;;;;4999144;28;20096;-83
2022/09/09 12:54:57;;;;;;;6.18;1.52;;;19.70;99.90;;;;;;5012422;28;20077;-85
2022/09/09 12:57:25;;;;;;;5.65;1.92;;;20.60;99.90;;;;;;5005962;28;20067;-83
2022/09/09 12:59:53;;;;;;;5.22;1.83;;;20.60;99.90;;;;;;5043032;28;20068;-83
2022/09/09 13:02:22;;;;;;;2.42;1.42;;;20.80;99.90;;;;;;5017946;28;20094;-83
2022/09/09 13:04:50;;;;;;;5.85;1.70;;;20.80;99.90;;;;;;5017124;28;20041;-79
2022/09/09 13:07:17;;;;;;;3.55;1.52;;;20.70;99.90;;;;;;5017976;28;20029;-82
2022/09/09 13:09:44;;;;;;;4.32;1.80;;;20.60;99.90;;;;;;5004308;28;20041;-80
2022/09/09 13:12:16;;;;;;;6.70;1.90;;;20.70;99.90;;;;;;5028232;28;20041;-80
2022/09/09 13:14:46;;;;;;;5.03;1.80;;;20.60;99.90;;;;;;5013468;28;20571;-81
2022/09/09 13:17:21;;;;;;;3.83;1.80;;;20.70;99.90;;;;;;5027508;28;20041;-86
2022/09/09 13:19:50;;;;;;;6.70;1.92;;;20.40;99.90;;;;;;5016993;28;20033;-82
2022/09/09 13:22:34;;;;;;;3.97;1.50;;;20.50;99.90;;;;;;5026576;28;20135;-81
2022/09/09 13:25:17;;;;;;;4.68;1.60;;;20.30;99.90;;;;;;5019202;28;20673;-82
2022/09/09 13:27:57;;;;;;;3.47;1.33;;;20.20;99.90;;;;;;5013580;28;20037;-81
2022/09/09 13:30:27;;;;;;;6.40;1.98;;;20.60;99.90;;;;;;5025154;28;20033;-83
2022/09/09 13:33:05;;;;;;;3.75;1.50;;;20.60;99.90;;;;;;5017329;28;20521;-85
2022/09/09 13:35:32;;;;;;;3.92;1.35;;;20.40;99.90;;;;;;5014912;28;20449;-78
2022/09/09 13:38:08;;;;;;;2.83;1.35;;;20.10;99.90;;;;;;4995405;28;20033;-80